createdAt,value
2018-05-10T00:00:33.467Z,6.83
2018-05-10T00:03:01.094Z,6.10
2018-05-10T00:05:28.709Z,6.17
2018-05-10T00:07:57.156Z,5.60
2018-05-10T00:10:25.465Z,6.37
2018-05-10T00:12:53.071Z,5.90
2018-05-10T00:15:20.722Z,6.03
2018-05-10T00:17:48.302Z,6.00
2018-05-10T00:20:15.919Z,5.63
2018-05-10T00:22:44.275Z,5.80
2018-05-10T00:25:11.915Z,5.93
2018-05-10T00:27:39.475Z,5.83
2018-05-10T00:30:07.077Z,5.67
2018-05-10T00:32:35.458Z,6.20
2018-05-10T00:35:03.812Z,5.90
2018-05-10T00:37:31.461Z,5.23
2018-05-10T00:39:59.094Z,5.70
2018-05-10T00:42:26.694Z,6.07
2018-05-10T00:44:54.279Z,5.53
2018-05-10T00:47:22.630Z,5.43
2018-05-10T00:49:50.213Z,5.20
2018-05-10T00:52:18.565Z,5.97
2018-05-10T00:54:53.034Z,5.47
2018-05-10T00:57:20.628Z,5.00
2018-05-10T00:59:48.169Z,5.40
2018-05-10T01:02:15.760Z,5.40
2018-05-10T01:04:43.350Z,6.00
2018-05-10T01:07:11.679Z,5.50
2018-05-10T01:09:39.274Z,5.67
2018-05-10T01:12:06.871Z,6.10
2018-05-10T01:14:34.440Z,6.03
2018-05-10T01:17:02.006Z,6.10
2018-05-10T01:19:29.662Z,5.87
2018-05-10T01:21:57.245Z,7.10
2018-05-10T01:24:24.879Z,6.47
2018-05-10T01:26:52.455Z,7.10
2018-05-10T01:29:20.051Z,6.77
2018-05-10T01:31:47.626Z,6.60
2018-05-10T01:34:16.022Z,7.10
2018-05-10T01:36:43.627Z,7.20
2018-05-10T01:39:11.304Z,7.00
2018-05-10T01:41:38.939Z,6.70
2018-05-10T01:44:06.532Z,6.67
2018-05-10T01:46:34.099Z,7.17
2018-05-10T01:49:01.708Z,6.60
2018-05-10T01:51:29.300Z,6.23
2018-05-10T01:53:56.926Z,6.23
2018-05-10T01:56:24.503Z,6.20
2018-05-10T01:58:52.101Z,5.97
2018-05-10T02:01:19.693Z,6.40
2018-05-10T02:03:47.272Z,5.53
2018-05-10T02:06:14.849Z,5.27
2018-05-10T02:08:42.505Z,5.40
2018-05-10T02:11:10.116Z,5.73
2018-05-10T02:13:38.502Z,4.70
2018-05-10T02:16:06.096Z,4.93
2018-05-10T02:18:33.660Z,5.10
2018-05-10T02:21:01.268Z,5.20
2018-05-10T02:23:29.625Z,4.63
2018-05-10T02:25:57.218Z,4.50
2018-05-10T02:28:24.822Z,4.20
2018-05-10T02:30:52.407Z,4.37
2018-05-10T02:33:20.006Z,4.20
2018-05-10T02:35:47.630Z,4.47
2018-05-10T02:38:15.235Z,4.77
2018-05-10T02:40:42.833Z,4.30
2018-05-10T02:43:10.413Z,4.60
2018-05-10T02:45:37.984Z,4.70
2018-05-10T02:48:06.374Z,5.20
2018-05-10T02:50:33.941Z,4.60
2018-05-10T02:53:01.510Z,5.40
2018-05-10T02:55:29.141Z,5.00
2018-05-10T02:57:57.494Z,4.93
2018-05-10T03:00:26.124Z,4.47
2018-05-10T03:02:53.739Z,5.07
2018-05-10T03:05:21.318Z,4.97
2018-05-10T03:07:49.734Z,4.77
2018-05-10T03:10:17.342Z,5.27
2018-05-10T03:12:44.934Z,4.30
2018-05-10T03:15:12.538Z,5.13
2018-05-10T03:17:40.105Z,4.23
2018-05-10T03:20:07.664Z,5.10
2018-05-10T03:22:35.266Z,4.87
2018-05-10T03:25:03.621Z,5.60
2018-05-10T03:27:31.207Z,5.10
2018-05-10T03:29:59.624Z,4.73
2018-05-10T03:32:27.269Z,4.50
2018-05-10T03:34:54.885Z,4.67
2018-05-10T03:37:22.434Z,5.00
2018-05-10T03:39:50.018Z,5.63
2018-05-10T03:42:17.654Z,5.67
2018-05-10T03:44:45.245Z,5.53
2018-05-10T03:47:13.578Z,7.27
2018-05-10T03:49:41.196Z,8.00
2018-05-10T03:52:08.789Z,7.10
2018-05-10T03:54:36.386Z,7.30
2018-05-10T03:57:03.957Z,6.97
2018-05-10T03:59:31.525Z,7.20
2018-05-10T04:01:59.917Z,7.30
2018-05-10T04:04:39.390Z,7.00
2018-05-10T04:07:18.676Z,6.53
2018-05-10T04:09:58.914Z,6.17
2018-05-10T04:12:26.466Z,6.53
2018-05-10T04:14:54.109Z,6.17
2018-05-10T04:17:21.761Z,6.30
2018-05-10T04:19:49.342Z,6.50
2018-05-10T04:22:16.962Z,6.10
2018-05-10T04:24:44.533Z,6.07
2018-05-10T04:27:12.129Z,5.90
2018-05-10T04:29:39.720Z,6.43
2018-05-10T04:32:08.099Z,6.10
2018-05-10T04:34:36.475Z,6.20
2018-05-10T04:37:05.848Z,5.93
2018-05-10T04:39:33.421Z,6.70
2018-05-10T04:42:01.787Z,6.13
2018-05-10T04:44:29.326Z,6.27
2018-05-10T04:46:56.941Z,6.30
2018-05-10T04:49:25.321Z,6.67
2018-05-10T04:51:52.910Z,6.70
2018-05-10T04:54:20.540Z,6.80
2018-05-10T04:56:48.100Z,8.63
2018-05-10T04:59:16.632Z,8.07
2018-05-10T05:01:44.166Z,8.50
2018-05-10T05:04:11.770Z,8.10
2018-05-10T05:06:39.389Z,8.17
2018-05-10T05:09:07.092Z,8.70
2018-05-10T05:11:34.590Z,7.67
2018-05-10T05:19:50.305Z,7.33
2018-05-10T05:22:17.871Z,7.30
2018-05-10T05:24:46.374Z,7.20
2018-05-10T05:27:30.402Z,6.43
2018-05-10T05:30:18.636Z,6.93
2018-05-10T05:32:46.278Z,6.23
2018-05-10T05:35:13.869Z,6.10
2018-05-10T05:37:41.457Z,6.07
2018-05-10T05:40:09.056Z,6.40
2018-05-10T05:42:37.432Z,7.03
2018-05-10T05:45:05.797Z,6.70
2018-05-10T05:47:33.369Z,6.47
2018-05-10T05:50:14.090Z,6.50
2018-05-10T05:52:41.687Z,6.70
2018-05-10T05:55:09.314Z,6.50
2018-05-10T05:57:36.874Z,7.27
2018-05-10T06:00:04.519Z,7.00
2018-05-10T06:02:32.066Z,6.57
2018-05-10T06:05:14.559Z,7.20
2018-05-10T06:07:42.941Z,7.57
2018-05-10T06:10:11.326Z,7.80
2018-05-10T06:12:39.705Z,7.50
2018-05-10T06:15:07.320Z,7.93
2018-05-10T06:17:42.438Z,7.60
2018-05-10T06:20:11.074Z,7.27
2018-05-10T06:22:46.784Z,7.17
2018-05-10T06:25:14.438Z,8.03
2018-05-10T06:27:54.841Z,7.97
2018-05-10T06:30:23.221Z,6.90
2018-05-10T06:32:51.540Z,7.53
2018-05-10T06:35:19.160Z,6.77
2018-05-10T06:37:47.539Z,8.57
2018-05-10T06:40:15.897Z,12.07
2018-05-10T06:42:43.541Z,8.87
2018-05-10T06:45:11.137Z,7.70
2018-05-10T06:47:39.494Z,8.00
2018-05-10T06:50:07.093Z,8.00
2018-05-10T06:52:34.729Z,7.70
2018-05-10T06:55:11.165Z,7.67
2018-05-10T07:06:25.731Z,8.07
2018-05-10T07:08:54.128Z,8.13
2018-05-10T07:11:21.685Z,7.40
2018-05-10T07:13:49.281Z,7.77
2018-05-10T07:16:16.854Z,8.30
2018-05-10T07:18:44.503Z,8.10
2018-05-10T07:21:12.124Z,7.30
2018-05-10T07:23:39.754Z,7.37
2018-05-10T07:26:08.186Z,7.93
2018-05-10T07:28:35.765Z,7.97
2018-05-10T07:31:03.369Z,7.97
2018-05-10T07:33:31.719Z,8.00
2018-05-10T07:35:59.322Z,8.10
2018-05-10T07:38:26.874Z,8.37
2018-05-10T07:40:54.481Z,8.80
2018-05-10T07:43:22.060Z,10.10
2018-05-10T07:45:49.803Z,9.20
2018-05-10T07:48:17.407Z,9.50
2018-05-10T07:50:45.747Z,9.60
2018-05-10T07:53:13.413Z,10.03
2018-05-10T07:55:40.987Z,9.93
2018-05-10T07:58:08.625Z,9.57
2018-05-10T08:00:36.229Z,10.03
2018-05-10T08:03:04.634Z,9.20
2018-05-10T08:05:32.244Z,9.40
2018-05-10T08:07:59.826Z,10.27
2018-05-10T08:10:27.447Z,10.27
2018-05-10T08:12:55.111Z,10.63
2018-05-10T08:15:22.688Z,10.10
2018-05-10T08:17:51.054Z,9.80
2018-05-10T08:20:18.671Z,9.40
2018-05-10T08:22:46.260Z,8.83
2018-05-10T08:25:13.837Z,8.30
2018-05-10T08:27:46.301Z,8.20
2018-05-10T08:30:14.028Z,7.80
2018-05-10T08:32:41.592Z,7.47
2018-05-10T08:35:09.204Z,9.43
2018-05-10T08:37:36.836Z,9.63
2018-05-10T08:40:04.429Z,9.23
2018-05-10T08:42:32.006Z,10.03
2018-05-10T08:45:00.481Z,10.60
2018-05-10T08:47:28.009Z,9.43
2018-05-10T08:49:55.602Z,9.10
2018-05-10T08:52:23.982Z,10.40
2018-05-10T08:54:52.293Z,11.03
2018-05-10T08:57:19.936Z,10.87
2018-05-10T08:59:47.582Z,11.50
2018-05-10T09:02:15.946Z,10.57
2018-05-10T09:04:43.590Z,9.43
2018-05-10T09:07:11.221Z,9.20
2018-05-10T09:09:38.828Z,8.03
2018-05-10T09:12:07.183Z,8.20
2018-05-10T09:14:34.814Z,8.73
2018-05-10T09:17:02.425Z,8.70
2018-05-10T09:19:30.818Z,8.50
2018-05-10T09:21:59.169Z,8.50
2018-05-10T09:24:26.765Z,7.70
2018-05-10T09:26:54.348Z,8.77
2018-05-10T09:29:21.948Z,7.83
2018-05-10T09:31:49.551Z,8.50
2018-05-10T09:34:17.146Z,9.10
2018-05-10T09:36:44.722Z,10.07
2018-05-10T09:39:12.377Z,9.50
2018-05-10T09:41:39.952Z,8.50
2018-05-10T09:44:07.564Z,9.00
2018-05-10T09:46:35.150Z,9.90
2018-05-10T09:49:02.783Z,8.10
2018-05-10T09:51:30.343Z,8.50
2018-05-10T09:53:57.988Z,9.00
2018-05-10T09:56:25.615Z,9.40
2018-05-10T09:58:53.214Z,8.13
2018-05-10T10:01:20.778Z,8.30
2018-05-10T10:03:48.335Z,7.20
2018-05-10T10:06:16.012Z,7.30
2018-05-10T10:08:43.582Z,8.00
2018-05-10T10:11:11.161Z,7.20
2018-05-10T10:13:38.733Z,7.40
2018-05-10T10:16:06.321Z,7.87
2018-05-10T10:18:33.930Z,7.10
2018-05-10T10:21:02.291Z,7.30
2018-05-10T10:23:29.862Z,7.00
2018-05-10T10:25:57.439Z,6.63
2018-05-10T10:28:25.049Z,6.67
2018-05-10T10:30:52.665Z,6.20
2018-05-10T10:33:20.227Z,6.30
2018-05-10T10:35:47.817Z,6.17
2018-05-10T10:38:16.221Z,5.43
2018-05-10T10:40:43.773Z,5.53
2018-05-10T10:43:11.379Z,6.53
2018-05-10T10:45:38.991Z,6.07
2018-05-10T10:48:06.666Z,4.90
2018-05-10T10:50:34.958Z,4.63
2018-05-10T10:53:02.505Z,5.33
2018-05-10T10:55:30.091Z,5.33
2018-05-10T10:57:57.662Z,4.73
2018-05-10T11:00:25.247Z,4.57
2018-05-10T11:02:52.853Z,4.30
2018-05-10T11:05:20.420Z,4.90
2018-05-10T11:07:48.037Z,4.97
2018-05-10T11:10:16.374Z,5.20
2018-05-10T11:12:43.979Z,4.60
2018-05-10T11:15:12.323Z,5.10
2018-05-10T11:17:39.890Z,4.90
2018-05-10T11:20:07.462Z,4.90
2018-05-10T11:22:35.126Z,4.10
2018-05-10T11:25:02.703Z,4.40
2018-05-10T11:27:30.305Z,4.67
2018-05-10T11:29:57.939Z,4.43
2018-05-10T11:32:25.503Z,4.17
2018-05-10T11:34:53.119Z,4.63
2018-05-10T11:37:20.696Z,5.03
2018-05-10T11:39:48.291Z,4.00
2018-05-10T11:42:15.932Z,4.33
2018-05-10T11:44:43.554Z,4.50
2018-05-10T11:47:11.125Z,5.03
2018-05-10T11:49:39.531Z,4.43
2018-05-10T11:52:07.096Z,3.60
2018-05-10T11:54:34.693Z,3.87
2018-05-10T11:57:02.285Z,3.67
2018-05-10T11:59:30.687Z,3.70
2018-05-10T12:01:58.314Z,3.50
2018-05-10T12:04:25.881Z,3.43
2018-05-10T12:06:54.220Z,3.63
2018-05-10T12:09:22.616Z,3.63
2018-05-10T12:11:57.806Z,3.40
2018-05-10T12:14:25.460Z,3.27
2018-05-10T12:16:53.749Z,3.73
2018-05-10T12:19:21.352Z,3.10
2018-05-10T12:21:48.978Z,2.70
2018-05-10T12:24:16.560Z,3.23
2018-05-10T12:26:44.143Z,2.83
2018-05-10T12:29:11.757Z,3.60
2018-05-10T12:31:39.386Z,4.03
2018-05-10T12:34:07.778Z,3.80
2018-05-10T12:36:35.344Z,3.70
2018-05-10T12:39:02.922Z,3.80
2018-05-10T12:41:30.486Z,3.63
2018-05-10T12:43:59.075Z,3.60
2018-05-10T12:46:26.781Z,4.63
2018-05-10T13:00:37.644Z,4.20
2018-05-10T13:03:07.551Z,3.80
2018-05-10T13:05:48.427Z,4.00
2018-05-10T13:08:26.432Z,4.00
2018-05-10T13:10:54.031Z,3.93
2018-05-10T13:13:24.721Z,4.60
2018-05-10T13:15:52.351Z,3.60
2018-05-10T13:18:19.949Z,2.93
2018-05-10T13:20:47.582Z,2.90
2018-05-10T13:23:20.782Z,3.43
2018-05-10T13:25:49.157Z,2.90
2018-05-10T13:28:16.778Z,3.10
2018-05-10T13:30:44.422Z,3.47
2018-05-10T13:33:15.973Z,2.80
2018-05-10T13:35:43.572Z,3.27
2018-05-10T13:38:11.201Z,3.07
2018-05-10T13:40:38.856Z,2.67
2018-05-10T13:43:12.011Z,2.67
2018-05-10T13:45:39.653Z,2.77
2018-05-10T13:48:21.299Z,2.37
2018-05-10T13:50:48.889Z,2.00
2018-05-10T13:53:16.498Z,2.27
2018-05-10T13:55:44.849Z,2.03
2018-05-10T13:58:12.453Z,2.03
2018-05-10T14:00:40.078Z,2.07
2018-05-10T14:03:07.750Z,2.10
2018-05-10T14:05:36.064Z,1.90
2018-05-10T14:08:03.660Z,2.57
2018-05-10T14:13:47.067Z,2.07
2018-05-10T14:16:14.627Z,2.00
2018-05-10T14:18:42.243Z,2.13
2018-05-10T14:21:10.601Z,2.33
2018-05-10T14:23:38.210Z,2.30
2018-05-10T14:26:05.815Z,2.80
2018-05-10T14:28:33.487Z,2.70
2018-05-10T14:31:01.089Z,3.03
2018-05-10T14:33:28.691Z,2.87
2018-05-10T14:35:56.246Z,3.50
2018-05-10T14:38:23.838Z,3.70
2018-05-10T14:40:51.440Z,3.80
2018-05-10T14:43:19.009Z,3.70
2018-05-10T14:45:46.617Z,3.67
2018-05-10T14:51:07.248Z,3.80
2018-05-10T14:53:35.621Z,4.13
2018-05-10T14:56:13.009Z,4.53
2018-05-10T14:58:40.617Z,4.30
2018-05-10T15:01:08.231Z,4.33
2018-05-10T15:03:35.812Z,4.13
2018-05-10T15:06:03.461Z,4.30
2018-05-10T15:08:31.855Z,4.50
2018-05-10T15:10:59.439Z,3.77
2018-05-10T15:13:27.001Z,3.60
2018-05-10T15:15:54.638Z,3.57
2018-05-10T15:18:22.245Z,3.10
2018-05-10T15:20:49.850Z,3.10
2018-05-10T15:23:17.444Z,3.50
2018-05-10T15:25:45.056Z,3.20
2018-05-10T15:28:13.403Z,2.90
2018-05-10T15:30:40.964Z,3.70
2018-05-10T15:33:08.539Z,3.40
2018-05-10T15:35:36.167Z,3.53
2018-05-10T15:38:03.777Z,3.07
2018-05-10T15:40:32.135Z,3.50
2018-05-10T15:42:59.744Z,3.50
2018-05-10T15:45:28.145Z,3.60
2018-05-10T15:47:55.806Z,3.23
2018-05-10T15:50:23.438Z,3.50
2018-05-10T15:52:51.009Z,3.67
2018-05-10T15:55:18.623Z,3.47
2018-05-10T15:57:46.177Z,3.60
2018-05-10T16:00:28.643Z,3.20
2018-05-10T16:02:56.275Z,3.73
2018-05-10T16:05:23.894Z,4.03
2018-05-10T16:07:51.486Z,3.20
2018-05-10T16:10:19.060Z,3.40
2018-05-10T16:12:47.444Z,3.20
2018-05-10T16:15:15.050Z,3.50
2018-05-10T16:17:42.646Z,3.40
2018-05-10T16:20:11.091Z,3.47
2018-05-10T16:22:38.705Z,3.70
2018-05-10T16:28:00.230Z,3.57
2018-05-10T16:30:32.538Z,3.17
2018-05-10T16:33:00.128Z,3.43
2018-05-10T16:35:27.715Z,3.40
2018-05-10T16:37:56.026Z,3.20
2018-05-10T16:40:23.597Z,3.33
2018-05-10T16:42:51.203Z,3.57
2018-05-10T16:45:19.846Z,3.23
2018-05-10T16:47:47.407Z,3.80
2018-05-10T16:50:15.022Z,3.53
2018-05-10T16:52:43.405Z,3.80
2018-05-10T16:55:11.036Z,3.63
2018-05-10T16:57:38.650Z,4.80
2018-05-10T17:00:06.303Z,4.70
2018-05-10T17:02:33.950Z,4.60
2018-05-10T17:05:02.344Z,4.40
2018-05-10T17:07:29.968Z,3.77
2018-05-10T17:10:00.970Z,3.93
2018-05-10T17:12:28.618Z,4.20
2018-05-10T17:14:56.201Z,3.60
2018-05-10T17:17:23.834Z,3.93
2018-05-10T17:19:51.395Z,4.20
2018-05-10T17:22:18.999Z,4.00
2018-05-10T17:24:46.614Z,3.80
2018-05-10T17:27:14.243Z,3.77
2018-05-10T17:29:42.635Z,4.00
2018-05-10T17:32:11.146Z,4.03
2018-05-10T17:34:38.753Z,3.83
2018-05-10T17:37:06.373Z,4.17
2018-05-10T17:39:34.011Z,4.53
2018-05-10T17:42:01.583Z,3.63
2018-05-10T17:44:29.240Z,3.77
2018-05-10T17:46:56.877Z,3.90
2018-05-10T17:49:31.834Z,3.77
2018-05-10T17:51:59.505Z,3.77
2018-05-10T17:54:27.095Z,3.43
2018-05-10T17:56:54.636Z,3.73
2018-05-10T17:59:22.257Z,3.90
2018-05-10T18:01:50.643Z,4.10
2018-05-10T18:04:18.268Z,4.23
2018-05-10T18:06:45.899Z,3.97
2018-05-10T18:09:25.846Z,4.07
2018-05-10T18:11:53.437Z,3.97
2018-05-10T18:17:35.492Z,3.60
2018-05-10T18:20:03.091Z,4.03
2018-05-10T18:22:52.262Z,3.60
2018-05-10T18:25:19.889Z,4.20
2018-05-10T18:27:51.311Z,3.43
2018-05-10T18:33:33.349Z,3.77
2018-05-10T18:36:00.938Z,3.87
2018-05-10T18:38:30.471Z,3.60
2018-05-10T18:47:02.821Z,3.70
2018-05-10T18:49:30.474Z,3.50
2018-05-10T18:51:58.897Z,4.43
2018-05-10T18:54:34.598Z,3.53
2018-05-10T18:57:02.994Z,3.43
2018-05-10T18:59:30.671Z,3.60
2018-05-10T19:02:15.630Z,3.87
2018-05-10T19:13:43.856Z,3.40
2018-05-10T19:19:10.050Z,3.87
2018-05-10T19:21:37.647Z,3.67
2018-05-10T19:24:27.263Z,3.90
2018-05-10T19:26:56.843Z,3.90
2018-05-10T19:29:24.485Z,3.83
2018-05-10T19:31:52.945Z,3.63
2018-05-10T19:34:20.503Z,4.43
2018-05-10T19:36:48.469Z,3.83
2018-05-10T19:39:16.041Z,4.47
2018-05-10T19:41:43.674Z,4.10
2018-05-10T19:44:11.270Z,4.50
2018-05-10T19:46:38.847Z,4.70
2018-05-10T19:49:07.202Z,4.60
2018-05-10T19:51:35.610Z,4.00
2018-05-10T19:54:03.175Z,3.80
2018-05-10T19:56:30.810Z,4.30
2018-05-10T19:58:59.189Z,4.30
2018-05-10T20:01:27.582Z,4.03
2018-05-10T20:04:02.381Z,4.20
2018-05-10T20:06:30.032Z,4.67
2018-05-10T20:08:57.652Z,4.00
2018-05-10T20:11:25.236Z,4.60
2018-05-10T20:13:57.361Z,4.43
2018-05-10T20:16:24.951Z,4.77
2018-05-10T20:18:53.303Z,4.90
2018-05-10T20:21:20.869Z,4.17
2018-05-10T20:23:48.515Z,5.00
2018-05-10T20:26:16.111Z,4.97
2018-05-10T20:28:44.487Z,4.90
2018-05-10T20:31:12.107Z,4.97
2018-05-10T20:33:40.527Z,5.00
2018-05-10T20:36:08.167Z,4.73
2018-05-10T20:38:35.741Z,4.70
2018-05-10T20:41:03.362Z,5.33
2018-05-10T20:43:30.947Z,5.17
2018-05-10T20:45:58.601Z,4.63
2018-05-10T20:48:26.246Z,5.07
2018-05-10T20:50:54.597Z,5.10
2018-05-10T20:53:22.172Z,4.77
2018-05-10T20:55:49.865Z,5.07
2018-05-10T20:58:17.390Z,4.40
2018-05-10T21:00:45.014Z,5.10
2018-05-10T21:03:12.652Z,4.90
2018-05-10T21:05:40.230Z,5.10
2018-05-10T21:08:07.822Z,5.47
2018-05-10T21:10:35.432Z,5.87
2018-05-10T21:13:03.024Z,4.63
2018-05-10T21:15:30.644Z,5.60
2018-05-10T21:17:58.262Z,5.50
2018-05-10T21:20:25.911Z,5.83
2018-05-10T21:22:53.511Z,5.47
2018-05-10T21:25:21.883Z,5.37
2018-05-10T21:27:50.284Z,5.40
2018-05-10T21:30:17.893Z,5.60
2018-05-10T21:32:45.531Z,5.77
2018-05-10T21:35:13.096Z,6.13
2018-05-10T21:37:40.673Z,5.40
2018-05-10T21:40:08.289Z,6.03
2018-05-10T21:42:35.896Z,5.83
2018-05-10T21:45:03.569Z,5.87
2018-05-10T21:47:31.231Z,5.17
2018-05-10T21:50:02.643Z,5.40
2018-05-10T21:52:30.218Z,5.63
2018-05-10T21:54:57.805Z,4.63
2018-05-10T21:57:25.420Z,5.60
2018-05-10T21:59:53.059Z,5.27
2018-05-10T22:02:20.710Z,5.40
2018-05-10T22:04:49.063Z,5.73
2018-05-10T22:07:16.638Z,5.27
2018-05-10T22:09:44.247Z,5.90
2018-05-10T22:12:11.886Z,5.40
2018-05-10T22:14:40.274Z,5.60
2018-05-10T22:17:07.872Z,5.23
2018-05-10T22:19:35.457Z,5.40
2018-05-10T22:22:03.025Z,5.87
2018-05-10T22:24:31.505Z,5.50
2018-05-10T22:26:59.078Z,5.30
2018-05-10T22:29:26.712Z,4.53
2018-05-10T22:31:54.331Z,5.50
2018-05-10T22:34:21.922Z,5.27
2018-05-10T22:36:49.495Z,4.93
2018-05-10T22:39:17.109Z,5.30
2018-05-10T22:41:44.713Z,5.07
2018-05-10T22:44:12.297Z,5.67
2018-05-10T22:46:39.945Z,5.43
2018-05-10T22:49:26.562Z,5.10
2018-05-10T22:51:54.934Z,5.07
2018-05-10T22:54:23.263Z,5.23
2018-05-10T22:56:50.903Z,5.10
2018-05-10T22:59:18.464Z,4.83
2018-05-10T23:01:46.057Z,5.70
2018-05-10T23:04:13.659Z,5.90
2018-05-10T23:06:42.049Z,6.40
2018-05-10T23:09:09.671Z,5.80
2018-05-10T23:11:37.305Z,6.60
2018-05-10T23:14:04.910Z,6.73
2018-05-10T23:16:33.267Z,6.43
2018-05-10T23:19:00.854Z,7.30
2018-05-10T23:21:29.202Z,5.63
2018-05-10T23:23:56.833Z,6.00
2018-05-10T23:26:25.159Z,6.60
2018-05-10T23:28:52.776Z,6.23
2018-05-10T23:31:20.353Z,5.83
2018-05-10T23:33:48.018Z,6.80
2018-05-10T23:36:15.630Z,6.23
2018-05-10T23:38:43.225Z,6.33
2018-05-10T23:41:10.810Z,6.37
2018-05-10T23:43:38.379Z,6.73
2018-05-10T23:46:06.707Z,7.43
2018-05-10T23:48:35.049Z,7.60
2018-05-10T23:51:03.367Z,7.60
2018-05-10T23:53:30.961Z,7.30
2018-05-10T23:55:58.533Z,7.20
2018-05-10T23:58:26.174Z,7.30
